ARG29 ENZV-ENBR
Flight info
| Callsign | ARG29 |
|---|---|
| Flight time | 0h 24m |
| Altitude | 14000 |
| Route | ALUVA |
| Aircraft | A20N/M-SDE2E3FGHIRWXY/LB1 |
Departure
| Time | 2026-04-25 18:20 |
|---|---|
| Airport | Stavanger Airport, Sola (ENZV) |
Arrival
| Time | 2026-04-25 18:45 |
|---|---|
| Airport | Bergen Airport, Flesland (ENBR) |
| Time | Latitude | Longitude | Altitude | Speed | Heading |
|---|---|---|---|---|---|
| 2026-04-25 17:59 | 58.87093 | 5.62731 | 39 ft | 0 kts | 225° |
| 2026-04-25 18:13 | 58.87094 | 5.62733 | 40 ft | 1 kts | 225° |
| 2026-04-25 18:13 | 58.87100 | 5.62744 | 40 ft | 1 kts | 225° |
| 2026-04-25 18:14 | 58.87110 | 5.62765 | 38 ft | 1 kts | 225° |
| 2026-04-25 18:14 | 58.87116 | 5.62775 | 41 ft | 1 kts | 225° |
| 2026-04-25 18:14 | 58.87121 | 5.62785 | 41 ft | 1 kts | 214° |
| 2026-04-25 18:14 | 58.87128 | 5.62793 | 40 ft | 1 kts | 199° |
| 2026-04-25 18:15 | 58.87136 | 5.62798 | 40 ft | 1 kts | 182° |
| 2026-04-25 18:15 | 58.87143 | 5.62798 | 39 ft | 1 kts | 160° |
| 2026-04-25 18:15 | 58.87148 | 5.62795 | 39 ft | 0 kts | 143° |
| 2026-04-25 18:16 | 58.87117 | 5.62849 | 41 ft | 5 kts | 133° |
| 2026-04-25 18:17 | 58.87086 | 5.62913 | 42 ft | 8 kts | 133° |
| 2026-04-25 18:17 | 58.87048 | 5.63009 | 42 ft | 10 kts | 127° |
| 2026-04-25 18:17 | 58.86998 | 5.63130 | 43 ft | 13 kts | 122° |
| 2026-04-25 18:17 | 58.86993 | 5.63299 | 42 ft | 14 kts | 92° |
| 2026-04-25 18:18 | 58.86997 | 5.63505 | 41 ft | 16 kts | 69° |
| 2026-04-25 18:18 | 58.87052 | 5.63703 | 42 ft | 18 kts | 61° |
| 2026-04-25 18:18 | 58.87145 | 5.63773 | 43 ft | 14 kts | 2° |
| 2026-04-25 18:18 | 58.87207 | 5.63776 | 43 ft | 0 kts | 1° |
| 2026-04-25 18:19 | 58.87208 | 5.63776 | 43 ft | 1 kts | 1° |
| 2026-04-25 18:19 | 58.87223 | 5.63777 | 43 ft | 4 kts | 1° |
| 2026-04-25 18:19 | 58.87386 | 5.63773 | 44 ft | 55 kts | 356° |
| 2026-04-25 18:20 | 58.87986 | 5.63766 | 36 ft | 115 kts | 358° |
| 2026-04-25 18:20 | 58.88878 | 5.63739 | 408 ft | 131 kts | 356° |
| 2026-04-25 18:20 | 58.89787 | 5.63747 | 1188 ft | 126 kts | 355° |
| 2026-04-25 18:20 | 58.90642 | 5.63714 | 2021 ft | 122 kts | 356° |
| 2026-04-25 18:21 | 58.91559 | 5.63663 | 2439 ft | 141 kts | 357° |
| 2026-04-25 18:21 | 58.92609 | 5.63612 | 2768 ft | 160 kts | 358° |
| 2026-04-25 18:21 | 58.93802 | 5.63568 | 3094 ft | 184 kts | 358° |
| 2026-04-25 18:21 | 58.95163 | 5.63527 | 3571 ft | 208 kts | 359° |
| 2026-04-25 18:22 | 58.96679 | 5.63484 | 4199 ft | 228 kts | 359° |
| 2026-04-25 18:22 | 58.97747 | 5.63453 | 4849 ft | 233 kts | 359° |
| 2026-04-25 18:22 | 58.99946 | 5.63390 | 5726 ft | 238 kts | 359° |
| 2026-04-25 18:22 | 59.01611 | 5.63342 | 5938 ft | 240 kts | 359° |
| 2026-04-25 18:23 | 59.03293 | 5.63294 | 5995 ft | 242 kts | 359° |
| 2026-04-25 18:23 | 59.04944 | 5.62845 | 5996 ft | 241 kts | 341° |
| 2026-04-25 18:23 | 59.06372 | 5.61136 | 5988 ft | 245 kts | 319° |
| 2026-04-25 18:23 | 59.07313 | 5.58305 | 6101 ft | 258 kts | 294° |
| 2026-04-25 18:24 | 59.07527 | 5.54767 | 6778 ft | 269 kts | 274° |
| 2026-04-25 18:24 | 59.07478 | 5.51201 | 7939 ft | 266 kts | 276° |
| 2026-04-25 18:24 | 59.07440 | 5.47599 | 9018 ft | 267 kts | 277° |
| 2026-04-25 18:24 | 59.07406 | 5.43970 | 10081 ft | 269 kts | 278° |
| 2026-04-25 18:25 | 59.07376 | 5.40265 | 10801 ft | 283 kts | 278° |
| 2026-04-25 18:25 | 59.07352 | 5.36281 | 11198 ft | 306 kts | 277° |
| 2026-04-25 18:25 | 59.07319 | 5.32026 | 11752 ft | 320 kts | 277° |
| 2026-04-25 18:25 | 59.07267 | 5.27689 | 12695 ft | 322 kts | 277° |
| 2026-04-25 18:26 | 59.07210 | 5.23313 | 13556 ft | 326 kts | 277° |
| 2026-04-25 18:26 | 59.07155 | 5.18886 | 13968 ft | 328 kts | 278° |
| 2026-04-25 18:26 | 59.07228 | 5.14491 | 14099 ft | 319 kts | 289° |
| 2026-04-25 18:26 | 59.07964 | 5.10565 | 14111 ft | 304 kts | 307° |
| 2026-04-25 18:27 | 59.09349 | 5.07546 | 14153 ft | 298 kts | 325° |
| 2026-04-25 18:27 | 59.11145 | 5.05583 | 14156 ft | 296 kts | 338° |
| 2026-04-25 18:27 | 59.13166 | 5.04863 | 14154 ft | 300 kts | 358° |
| 2026-04-25 18:27 | 59.15258 | 5.05312 | 14148 ft | 303 kts | 2° |
| 2026-04-25 18:28 | 59.17351 | 5.05842 | 14143 ft | 303 kts | 2° |
| 2026-04-25 18:28 | 59.19441 | 5.06373 | 14142 ft | 303 kts | 2° |
| 2026-04-25 18:28 | 59.21507 | 5.06895 | 14137 ft | 303 kts | 2° |
| 2026-04-25 18:29 | 59.25677 | 5.07924 | 14132 ft | 301 kts | 2° |
| 2026-04-25 18:29 | 59.27764 | 5.08435 | 14127 ft | 302 kts | 2° |
| 2026-04-25 18:30 | 59.34011 | 5.09968 | 14133 ft | 301 kts | 2° |
| 2026-04-25 18:30 | 59.36097 | 5.10480 | 14128 ft | 301 kts | 2° |
| 2026-04-25 18:30 | 59.38178 | 5.10995 | 14127 ft | 301 kts | 2° |
| 2026-04-25 18:30 | 59.40262 | 5.11508 | 14132 ft | 301 kts | 2° |
| 2026-04-25 18:31 | 59.42342 | 5.12018 | 14127 ft | 302 kts | 2° |
| 2026-04-25 18:31 | 59.44430 | 5.12531 | 14157 ft | 302 kts | 2° |
| 2026-04-25 18:31 | 59.46490 | 5.13037 | 14156 ft | 302 kts | 2° |
| 2026-04-25 18:31 | 59.48569 | 5.13549 | 14156 ft | 301 kts | 2° |
| 2026-04-25 18:32 | 59.50653 | 5.14064 | 14176 ft | 301 kts | 2° |
| 2026-04-25 18:32 | 59.52732 | 5.14567 | 14159 ft | 301 kts | 2° |
| 2026-04-25 18:32 | 59.54813 | 5.15062 | 14158 ft | 301 kts | 2° |
| 2026-04-25 18:32 | 59.56891 | 5.15556 | 14158 ft | 301 kts | 2° |
| 2026-04-25 18:33 | 59.58967 | 5.16052 | 14086 ft | 300 kts | 2° |
| 2026-04-25 18:33 | 59.61047 | 5.16546 | 13606 ft | 302 kts | 2° |
| 2026-04-25 18:33 | 59.63136 | 5.17025 | 13040 ft | 301 kts | 2° |
| 2026-04-25 18:33 | 59.65250 | 5.17484 | 11948 ft | 312 kts | 2° |
| 2026-04-25 18:34 | 59.67440 | 5.17917 | 10669 ft | 328 kts | 2° |
| 2026-04-25 18:34 | 59.69771 | 5.18320 | 9442 ft | 341 kts | 356° |
| 2026-04-25 18:34 | 59.72102 | 5.18566 | 9055 ft | 327 kts | 1° |
| 2026-04-25 18:34 | 59.74317 | 5.18889 | 8797 ft | 312 kts | 2° |
| 2026-04-25 18:35 | 59.76494 | 5.19217 | 7786 ft | 318 kts | 2° |
| 2026-04-25 18:35 | 59.78755 | 5.19509 | 6605 ft | 332 kts | 2° |
| 2026-04-25 18:35 | 59.81066 | 5.19767 | 5804 ft | 330 kts | 2° |
| 2026-04-25 18:35 | 59.83325 | 5.20017 | 5382 ft | 318 kts | 2° |
| 2026-04-25 18:36 | 59.85483 | 5.20248 | 5144 ft | 302 kts | 2° |
| 2026-04-25 18:36 | 59.87526 | 5.20469 | 5026 ft | 285 kts | 2° |
| 2026-04-25 18:36 | 59.89497 | 5.20790 | 5018 ft | 286 kts | 5° |
| 2026-04-25 18:36 | 59.91447 | 5.21228 | 5002 ft | 285 kts | 5° |
| 2026-04-25 18:37 | 59.93408 | 5.21671 | 4922 ft | 280 kts | 5° |
| 2026-04-25 18:37 | 59.95332 | 5.22102 | 4450 ft | 279 kts | 5° |
| 2026-04-25 18:37 | 59.97256 | 5.22523 | 4062 ft | 273 kts | 5° |
| 2026-04-25 18:37 | 59.99085 | 5.22935 | 4008 ft | 255 kts | 7° |
| 2026-04-25 18:38 | 60.00791 | 5.23538 | 4013 ft | 249 kts | 10° |
| 2026-04-25 18:38 | 60.02487 | 5.24249 | 3935 ft | 249 kts | 10° |
| 2026-04-25 18:38 | 60.04183 | 5.24955 | 3624 ft | 250 kts | 10° |
| 2026-04-25 18:38 | 60.05903 | 5.25663 | 3175 ft | 251 kts | 10° |
| 2026-04-25 18:39 | 60.07576 | 5.26351 | 3031 ft | 238 kts | 10° |
| 2026-04-25 18:39 | 60.09139 | 5.26989 | 3027 ft | 229 kts | 10° |
| 2026-04-25 18:39 | 60.10699 | 5.27505 | 3013 ft | 215 kts | 3° |
| 2026-04-25 18:39 | 60.12085 | 5.27474 | 3014 ft | 188 kts | 355° |
| 2026-04-25 18:40 | 60.13341 | 5.27166 | 3012 ft | 172 kts | 352° |
| 2026-04-25 18:40 | 60.14503 | 5.26787 | 2989 ft | 169 kts | 352° |
| 2026-04-25 18:40 | 60.15663 | 5.26403 | 2783 ft | 167 kts | 352° |
| 2026-04-25 18:40 | 60.16807 | 5.26021 | 2550 ft | 166 kts | 352° |
| 2026-04-25 18:41 | 60.17920 | 5.25649 | 2350 ft | 153 kts | 351° |
| 2026-04-25 18:41 | 60.18895 | 5.25323 | 2131 ft | 134 kts | 350° |
| 2026-04-25 18:41 | 60.19746 | 5.25037 | 1943 ft | 115 kts | 349° |
| 2026-04-25 18:41 | 60.20515 | 5.24780 | 1784 ft | 113 kts | 350° |
| 2026-04-25 18:42 | 60.21280 | 5.24524 | 1626 ft | 111 kts | 350° |
| 2026-04-25 18:42 | 60.21539 | 5.24437 | 1568 ft | 110 kts | 350° |
| 2026-04-25 18:42 | 60.22795 | 5.24015 | 1317 ft | 111 kts | 349° |
| 2026-04-25 18:42 | 60.23549 | 5.23762 | 1151 ft | 110 kts | 349° |
| 2026-04-25 18:43 | 60.24313 | 5.23506 | 1010 ft | 112 kts | 349° |
| 2026-04-25 18:43 | 60.25095 | 5.23242 | 834 ft | 113 kts | 348° |
| 2026-04-25 18:43 | 60.25853 | 5.22988 | 679 ft | 111 kts | 348° |
| 2026-04-25 18:43 | 60.26621 | 5.22731 | 530 ft | 110 kts | 347° |
| 2026-04-25 18:44 | 60.27366 | 5.22476 | 380 ft | 110 kts | 347° |
| 2026-04-25 18:44 | 60.28145 | 5.22218 | 226 ft | 115 kts | 347° |
| 2026-04-25 18:44 | 60.28898 | 5.21959 | 150 ft | 97 kts | 351° |
| 2026-04-25 18:44 | 60.29477 | 5.21758 | 154 ft | 73 kts | 348° |
| 2026-04-25 18:45 | 60.29914 | 5.21605 | 160 ft | 56 kts | 352° |
| 2026-04-25 18:45 | 60.30254 | 5.21489 | 160 ft | 43 kts | 349° |
| 2026-04-25 18:45 | 60.30437 | 5.21598 | 163 ft | 0 kts | 81° |
| 2026-04-25 18:46 | 60.30437 | 5.21599 | 163 ft | 0 kts | 81° |
| 2026-04-25 18:47 | 60.30438 | 5.21608 | 163 ft | 0 kts | 81° |